sensor_id;sensor_type;location;lat;lon;timestamp;P1;durP1;ratioP1;P2;durP2;ratioP2
18596;SDS011;9428;50.950;6.912;2024-01-16T00:00:39;20.40;;;6.70;;
18596;SDS011;9428;50.950;6.912;2024-01-16T00:03:26;12.57;;;7.10;;
18596;SDS011;9428;50.950;6.912;2024-01-16T00:06:14;18.10;;;7.70;;
18596;SDS011;9428;50.950;6.912;2024-01-16T00:09:04;13.10;;;6.97;;
18596;SDS011;9428;50.950;6.912;2024-01-16T00:11:51;9.40;;;6.77;;
18596;SDS011;9428;50.950;6.912;2024-01-16T00:14:40;17.77;;;7.23;;
18596;SDS011;9428;50.950;6.912;2024-01-16T00:17:28;19.83;;;7.27;;
18596;SDS011;9428;50.950;6.912;2024-01-16T00:20:16;14.03;;;7.40;;
18596;SDS011;9428;50.950;6.912;2024-01-16T00:23:03;11.53;;;7.20;;
18596;SDS011;9428;50.950;6.912;2024-01-16T00:25:50;16.07;;;7.80;;
18596;SDS011;9428;50.950;6.912;2024-01-16T00:28:38;16.33;;;7.50;;
18596;SDS011;9428;50.950;6.912;2024-01-16T00:31:31;11.63;;;7.47;;
18596;SDS011;9428;50.950;6.912;2024-01-16T00:34:18;23.70;;;8.13;;
18596;SDS011;9428;50.950;6.912;2024-01-16T00:37:05;12.00;;;7.00;;
18596;SDS011;9428;50.950;6.912;2024-01-16T00:39:53;13.40;;;7.00;;
18596;SDS011;9428;50.950;6.912;2024-01-16T00:42:40;14.97;;;7.47;;
18596;SDS011;9428;50.950;6.912;2024-01-16T00:45:28;17.33;;;8.57;;
18596;SDS011;9428;50.950;6.912;2024-01-16T00:48:17;11.23;;;7.30;;
18596;SDS011;9428;50.950;6.912;2024-01-16T00:51:06;9.87;;;7.27;;
18596;SDS011;9428;50.950;6.912;2024-01-16T00:53:53;14.47;;;8.07;;
18596;SDS011;9428;50.950;6.912;2024-01-16T00:56:41;18.03;;;8.30;;
18596;SDS011;9428;50.950;6.912;2024-01-16T00:59:28;11.47;;;6.33;;
18596;SDS011;9428;50.950;6.912;2024-01-16T01:02:16;13.07;;;7.37;;
18596;SDS011;9428;50.950;6.912;2024-01-16T01:05:05;13.57;;;7.67;;
18596;SDS011;9428;50.950;6.912;2024-01-16T01:07:54;13.07;;;6.77;;
18596;SDS011;9428;50.950;6.912;2024-01-16T01:10:41;10.83;;;7.00;;
18596;SDS011;9428;50.950;6.912;2024-01-16T01:13:29;18.13;;;6.87;;
18596;SDS011;9428;50.950;6.912;2024-01-16T01:16:16;9.00;;;6.43;;
18596;SDS011;9428;50.950;6.912;2024-01-16T01:19:04;18.37;;;6.70;;
18596;SDS011;9428;50.950;6.912;2024-01-16T01:21:53;13.90;;;7.43;;
18596;SDS011;9428;50.950;6.912;2024-01-16T01:24:40;15.77;;;6.77;;
18596;SDS011;9428;50.950;6.912;2024-01-16T01:27:28;14.30;;;7.20;;
18596;SDS011;9428;50.950;6.912;2024-01-16T01:30:15;11.20;;;7.40;;
18596;SDS011;9428;50.950;6.912;2024-01-16T01:33:03;11.77;;;6.23;;
18596;SDS011;9428;50.950;6.912;2024-01-16T01:35:50;12.90;;;5.80;;
18596;SDS011;9428;50.950;6.912;2024-01-16T01:38:39;8.70;;;4.60;;
18596;SDS011;9428;50.950;6.912;2024-01-16T01:41:26;14.33;;;5.47;;
18596;SDS011;9428;50.950;6.912;2024-01-16T01:44:14;10.57;;;5.30;;
18596;SDS011;9428;50.950;6.912;2024-01-16T01:47:01;11.87;;;5.27;;
18596;SDS011;9428;50.950;6.912;2024-01-16T01:49:50;10.63;;;5.97;;
18596;SDS011;9428;50.950;6.912;2024-01-16T01:52:38;12.40;;;6.23;;
18596;SDS011;9428;50.950;6.912;2024-01-16T01:55:28;11.90;;;5.67;;
18596;SDS011;9428;50.950;6.912;2024-01-16T01:58:15;13.80;;;6.20;;
18596;SDS011;9428;50.950;6.912;2024-01-16T02:01:06;14.40;;;6.53;;
18596;SDS011;9428;50.950;6.912;2024-01-16T02:03:54;12.53;;;6.80;;
18596;SDS011;9428;50.950;6.912;2024-01-16T02:06:43;19.67;;;6.97;;
18596;SDS011;9428;50.950;6.912;2024-01-16T02:09:31;12.00;;;6.80;;
18596;SDS011;9428;50.950;6.912;2024-01-16T02:12:20;18.57;;;8.23;;
18596;SDS011;9428;50.950;6.912;2024-01-16T02:15:07;19.00;;;7.93;;
18596;SDS011;9428;50.950;6.912;2024-01-16T02:17:55;14.83;;;7.13;;
18596;SDS011;9428;50.950;6.912;2024-01-16T02:20:44;13.57;;;7.10;;
18596;SDS011;9428;50.950;6.912;2024-01-16T02:23:35;15.03;;;7.70;;
18596;SDS011;9428;50.950;6.912;2024-01-16T02:26:22;17.20;;;7.63;;
18596;SDS011;9428;50.950;6.912;2024-01-16T02:29:10;14.60;;;7.93;;
18596;SDS011;9428;50.950;6.912;2024-01-16T02:31:57;17.67;;;8.37;;
18596;SDS011;9428;50.950;6.912;2024-01-16T02:34:44;15.27;;;8.00;;
18596;SDS011;9428;50.950;6.912;2024-01-16T02:37:35;12.33;;;6.07;;
18596;SDS011;9428;50.950;6.912;2024-01-16T02:40:24;13.97;;;6.93;;
18596;SDS011;9428;50.950;6.912;2024-01-16T02:43:12;15.13;;;7.07;;
18596;SDS011;9428;50.950;6.912;2024-01-16T02:46:01;19.10;;;6.90;;
18596;SDS011;9428;50.950;6.912;2024-01-16T02:48:48;14.93;;;6.07;;
18596;SDS011;9428;50.950;6.912;2024-01-16T02:51:35;14.63;;;6.53;;
18596;SDS011;9428;50.950;6.912;2024-01-16T02:54:23;15.07;;;7.27;;
18596;SDS011;9428;50.950;6.912;2024-01-16T02:57:12;10.20;;;5.97;;
18596;SDS011;9428;50.950;6.912;2024-01-16T02:59:59;16.67;;;6.17;;
18596;SDS011;9428;50.950;6.912;2024-01-16T03:02:47;16.37;;;5.90;;
18596;SDS011;9428;50.950;6.912;2024-01-16T03:05:34;14.73;;;6.77;;
18596;SDS011;9428;50.950;6.912;2024-01-16T03:08:22;13.83;;;6.70;;
18596;SDS011;9428;50.950;6.912;2024-01-16T03:11:09;14.57;;;6.57;;
18596;SDS011;9428;50.950;6.912;2024-01-16T03:13:58;14.17;;;6.73;;
18596;SDS011;9428;50.950;6.912;2024-01-16T03:16:45;13.30;;;6.50;;
18596;SDS011;9428;50.950;6.912;2024-01-16T03:19:32;18.17;;;6.50;;
18596;SDS011;9428;50.950;6.912;2024-01-16T03:22:20;14.57;;;6.30;;
18596;SDS011;9428;50.950;6.912;2024-01-16T03:25:08;13.60;;;7.53;;
18596;SDS011;9428;50.950;6.912;2024-01-16T03:27:56;13.70;;;7.03;;
18596;SDS011;9428;50.950;6.912;2024-01-16T03:30:44;14.73;;;5.87;;
18596;SDS011;9428;50.950;6.912;2024-01-16T03:33:32;20.47;;;7.10;;
18596;SDS011;9428;50.950;6.912;2024-01-16T03:36:21;15.20;;;8.03;;
18596;SDS011;9428;50.950;6.912;2024-01-16T03:39:08;19.47;;;6.80;;
18596;SDS011;9428;50.950;6.912;2024-01-16T03:41:55;19.70;;;6.90;;
18596;SDS011;9428;50.950;6.912;2024-01-16T03:44:43;15.43;;;6.83;;
18596;SDS011;9428;50.950;6.912;2024-01-16T03:47:32;19.77;;;7.13;;
18596;SDS011;9428;50.950;6.912;2024-01-16T03:50:19;15.50;;;7.07;;
18596;SDS011;9428;50.950;6.912;2024-01-16T03:53:07;20.57;;;7.37;;
18596;SDS011;9428;50.950;6.912;2024-01-16T03:55:54;17.40;;;8.27;;
18596;SDS011;9428;50.950;6.912;2024-01-16T03:58:42;17.10;;;7.63;;
18596;SDS011;9428;50.950;6.912;2024-01-16T04:01:30;16.77;;;7.57;;
18596;SDS011;9428;50.950;6.912;2024-01-16T04:04:19;15.50;;;7.70;;
18596;SDS011;9428;50.950;6.912;2024-01-16T04:07:08;15.07;;;8.10;;
18596;SDS011;9428;50.950;6.912;2024-01-16T04:09:55;12.60;;;7.13;;
18596;SDS011;9428;50.950;6.912;2024-01-16T04:12:42;18.77;;;9.13;;
18596;SDS011;9428;50.950;6.912;2024-01-16T04:15:30;16.50;;;8.70;;
18596;SDS011;9428;50.950;6.912;2024-01-16T04:18:17;17.37;;;9.13;;
18596;SDS011;9428;50.950;6.912;2024-01-16T04:21:06;15.63;;;9.40;;
18596;SDS011;9428;50.950;6.912;2024-01-16T04:23:53;13.83;;;8.43;;
18596;SDS011;9428;50.950;6.912;2024-01-16T04:26:41;16.83;;;8.63;;
18596;SDS011;9428;50.950;6.912;2024-01-16T04:29:28;13.53;;;7.97;;
18596;SDS011;9428;50.950;6.912;2024-01-16T04:32:16;16.13;;;9.00;;
18596;SDS011;9428;50.950;6.912;2024-01-16T04:35:04;15.00;;;8.93;;
18596;SDS011;9428;50.950;6.912;2024-01-16T04:37:53;17.07;;;8.63;;
18596;SDS011;9428;50.950;6.912;2024-01-16T04:40:40;17.37;;;8.33;;
18596;SDS011;9428;50.950;6.912;2024-01-16T04:43:27;17.67;;;8.00;;
18596;SDS011;9428;50.950;6.912;2024-01-16T04:46:15;12.23;;;7.07;;
18596;SDS011;9428;50.950;6.912;2024-01-16T04:49:02;10.20;;;6.20;;
18596;SDS011;9428;50.950;6.912;2024-01-16T04:51:49;19.97;;;6.80;;
18596;SDS011;9428;50.950;6.912;2024-01-16T04:54:38;18.83;;;6.47;;
18596;SDS011;9428;50.950;6.912;2024-01-16T04:57:25;22.70;;;6.73;;
18596;SDS011;9428;50.950;6.912;2024-01-16T05:00:13;23.23;;;6.03;;
18596;SDS011;9428;50.950;6.912;2024-01-16T05:03:03;12.67;;;4.90;;
18596;SDS011;9428;50.950;6.912;2024-01-16T05:05:51;14.43;;;5.20;;
18596;SDS011;9428;50.950;6.912;2024-01-16T05:08:39;16.40;;;5.43;;
18596;SDS011;9428;50.950;6.912;2024-01-16T05:11:28;11.63;;;5.23;;
18596;SDS011;9428;50.950;6.912;2024-01-16T05:14:15;14.70;;;4.83;;
18596;SDS011;9428;50.950;6.912;2024-01-16T05:17:03;9.77;;;4.60;;
18596;SDS011;9428;50.950;6.912;2024-01-16T05:19:50;13.17;;;4.90;;
18596;SDS011;9428;50.950;6.912;2024-01-16T05:22:38;14.13;;;4.77;;
18596;SDS011;9428;50.950;6.912;2024-01-16T05:25:25;9.43;;;5.03;;
18596;SDS011;9428;50.950;6.912;2024-01-16T05:28:14;13.77;;;4.80;;
18596;SDS011;9428;50.950;6.912;2024-01-16T05:31:01;12.60;;;4.77;;
18596;SDS011;9428;50.950;6.912;2024-01-16T05:33:48;15.83;;;4.87;;
18596;SDS011;9428;50.950;6.912;2024-01-16T05:36:36;14.20;;;4.83;;
18596;SDS011;9428;50.950;6.912;2024-01-16T05:39:23;9.97;;;4.93;;
18596;SDS011;9428;50.950;6.912;2024-01-16T05:42:11;12.10;;;4.50;;
18596;SDS011;9428;50.950;6.912;2024-01-16T05:45:00;15.40;;;5.03;;
18596;SDS011;9428;50.950;6.912;2024-01-16T05:47:48;18.73;;;4.43;;
18596;SDS011;9428;50.950;6.912;2024-01-16T05:50:36;16.23;;;5.30;;
18596;SDS011;9428;50.950;6.912;2024-01-16T05:53:23;11.00;;;4.57;;
18596;SDS011;9428;50.950;6.912;2024-01-16T05:56:11;9.00;;;4.53;;
18596;SDS011;9428;50.950;6.912;2024-01-16T05:58:58;9.93;;;4.10;;
18596;SDS011;9428;50.950;6.912;2024-01-16T06:01:47;17.43;;;5.80;;
18596;SDS011;9428;50.950;6.912;2024-01-16T06:04:34;12.77;;;5.30;;
18596;SDS011;9428;50.950;6.912;2024-01-16T06:07:22;14.53;;;5.17;;
18596;SDS011;9428;50.950;6.912;2024-01-16T06:10:11;10.77;;;4.90;;
18596;SDS011;9428;50.950;6.912;2024-01-16T06:12:59;10.27;;;5.13;;
18596;SDS011;9428;50.950;6.912;2024-01-16T06:15:46;7.13;;;4.07;;
18596;SDS011;9428;50.950;6.912;2024-01-16T06:18:35;9.87;;;4.53;;
18596;SDS011;9428;50.950;6.912;2024-01-16T06:21:22;15.87;;;5.03;;
18596;SDS011;9428;50.950;6.912;2024-01-16T06:24:09;8.50;;;4.07;;
18596;SDS011;9428;50.950;6.912;2024-01-16T06:26:58;11.23;;;4.07;;
18596;SDS011;9428;50.950;6.912;2024-01-16T06:29:46;15.07;;;4.10;;
18596;SDS011;9428;50.950;6.912;2024-01-16T06:32:33;19.50;;;4.87;;
18596;SDS011;9428;50.950;6.912;2024-01-16T06:35:22;16.27;;;4.77;;
18596;SDS011;9428;50.950;6.912;2024-01-16T06:38:09;12.63;;;5.00;;
18596;SDS011;9428;50.950;6.912;2024-01-16T06:40:57;12.67;;;5.00;;
18596;SDS011;9428;50.950;6.912;2024-01-16T06:43:46;13.20;;;4.57;;
18596;SDS011;9428;50.950;6.912;2024-01-16T06:46:33;14.23;;;4.40;;
18596;SDS011;9428;50.950;6.912;2024-01-16T06:49:21;29.90;;;4.80;;
18596;SDS011;9428;50.950;6.912;2024-01-16T06:52:09;16.17;;;4.90;;
18596;SDS011;9428;50.950;6.912;2024-01-16T06:54:57;13.20;;;4.53;;
18596;SDS011;9428;50.950;6.912;2024-01-16T06:57:44;12.50;;;4.03;;
18596;SDS011;9428;50.950;6.912;2024-01-16T07:00:32;7.73;;;3.57;;
18596;SDS011;9428;50.950;6.912;2024-01-16T07:03:23;12.57;;;4.47;;
18596;SDS011;9428;50.950;6.912;2024-01-16T07:06:11;10.77;;;3.77;;
18596;SDS011;9428;50.950;6.912;2024-01-16T07:09:01;10.23;;;4.23;;
18596;SDS011;9428;50.950;6.912;2024-01-16T07:11:50;9.77;;;4.03;;
18596;SDS011;9428;50.950;6.912;2024-01-16T07:14:37;6.63;;;3.50;;
18596;SDS011;9428;50.950;6.912;2024-01-16T07:17:25;13.17;;;4.10;;
18596;SDS011;9428;50.950;6.912;2024-01-16T07:20:12;9.17;;;3.93;;
18596;SDS011;9428;50.950;6.912;2024-01-16T07:23:00;9.93;;;3.53;;
18596;SDS011;9428;50.950;6.912;2024-01-16T07:25:49;12.13;;;3.17;;
18596;SDS011;9428;50.950;6.912;2024-01-16T07:28:37;8.13;;;3.43;;
18596;SDS011;9428;50.950;6.912;2024-01-16T07:31:30;9.67;;;3.40;;
18596;SDS011;9428;50.950;6.912;2024-01-16T07:34:17;12.23;;;3.23;;
18596;SDS011;9428;50.950;6.912;2024-01-16T07:37:07;9.93;;;3.17;;
18596;SDS011;9428;50.950;6.912;2024-01-16T07:39:54;13.07;;;3.47;;
18596;SDS011;9428;50.950;6.912;2024-01-16T07:42:43;12.33;;;3.50;;
18596;SDS011;9428;50.950;6.912;2024-01-16T07:45:32;11.20;;;2.83;;
18596;SDS011;9428;50.950;6.912;2024-01-16T07:48:19;6.83;;;2.70;;
18596;SDS011;9428;50.950;6.912;2024-01-16T07:51:08;5.63;;;2.93;;
18596;SDS011;9428;50.950;6.912;2024-01-16T07:54:03;9.30;;;2.97;;
18596;SDS011;9428;50.950;6.912;2024-01-16T07:56:52;9.27;;;3.50;;
18596;SDS011;9428;50.950;6.912;2024-01-16T07:59:41;9.47;;;3.17;;
18596;SDS011;9428;50.950;6.912;2024-01-16T08:02:31;8.73;;;3.13;;
18596;SDS011;9428;50.950;6.912;2024-01-16T08:05:19;8.53;;;3.03;;
18596;SDS011;9428;50.950;6.912;2024-01-16T08:08:11;11.37;;;3.53;;
18596;SDS011;9428;50.950;6.912;2024-01-16T08:10:58;10.57;;;3.23;;
18596;SDS011;9428;50.950;6.912;2024-01-16T08:13:45;10.13;;;3.33;;
18596;SDS011;9428;50.950;6.912;2024-01-16T08:16:34;5.93;;;3.33;;
18596;SDS011;9428;50.950;6.912;2024-01-16T08:19:22;10.57;;;2.70;;
18596;SDS011;9428;50.950;6.912;2024-01-16T08:22:11;11.70;;;2.60;;
18596;SDS011;9428;50.950;6.912;2024-01-16T08:24:58;8.00;;;2.63;;
18596;SDS011;9428;50.950;6.912;2024-01-16T08:27:46;8.67;;;2.27;;
18596;SDS011;9428;50.950;6.912;2024-01-16T08:30:33;6.70;;;2.93;;
18596;SDS011;9428;50.950;6.912;2024-01-16T08:33:22;8.77;;;2.10;;
18596;SDS011;9428;50.950;6.912;2024-01-16T08:36:09;9.73;;;3.03;;
18596;SDS011;9428;50.950;6.912;2024-01-16T08:38:57;9.30;;;2.97;;
18596;SDS011;9428;50.950;6.912;2024-01-16T08:41:44;9.90;;;3.77;;
18596;SDS011;9428;50.950;6.912;2024-01-16T08:44:32;7.83;;;3.20;;
18596;SDS011;9428;50.950;6.912;2024-01-16T08:47:19;8.50;;;3.03;;
18596;SDS011;9428;50.950;6.912;2024-01-16T08:50:08;7.60;;;2.83;;
18596;SDS011;9428;50.950;6.912;2024-01-16T08:52:56;6.03;;;2.13;;
18596;SDS011;9428;50.950;6.912;2024-01-16T08:55:43;7.23;;;2.57;;
18596;SDS011;9428;50.950;6.912;2024-01-16T08:58:33;7.07;;;2.60;;
18596;SDS011;9428;50.950;6.912;2024-01-16T09:01:23;15.53;;;2.53;;
18596;SDS011;9428;50.950;6.912;2024-01-16T09:04:10;11.20;;;2.97;;
18596;SDS011;9428;50.950;6.912;2024-01-16T09:06:59;7.50;;;2.63;;
18596;SDS011;9428;50.950;6.912;2024-01-16T09:09:50;5.93;;;2.70;;
18596;SDS011;9428;50.950;6.912;2024-01-16T09:12:37;9.83;;;2.50;;
18596;SDS011;9428;50.950;6.912;2024-01-16T09:15:24;8.63;;;3.03;;
18596;SDS011;9428;50.950;6.912;2024-01-16T09:18:12;14.90;;;3.07;;
18596;SDS011;9428;50.950;6.912;2024-01-16T09:20:59;12.83;;;3.20;;
18596;SDS011;9428;50.950;6.912;2024-01-16T09:23:48;6.77;;;2.43;;
18596;SDS011;9428;50.950;6.912;2024-01-16T09:26:36;6.90;;;2.60;;
18596;SDS011;9428;50.950;6.912;2024-01-16T09:29:23;8.33;;;2.87;;
18596;SDS011;9428;50.950;6.912;2024-01-16T09:32:11;13.17;;;2.90;;
18596;SDS011;9428;50.950;6.912;2024-01-16T09:34:58;13.00;;;3.23;;
18596;SDS011;9428;50.950;6.912;2024-01-16T09:37:48;7.77;;;3.00;;
18596;SDS011;9428;50.950;6.912;2024-01-16T09:40:37;6.97;;;2.60;;
18596;SDS011;9428;50.950;6.912;2024-01-16T09:43:25;10.37;;;3.17;;
18596;SDS011;9428;50.950;6.912;2024-01-16T09:46:14;7.53;;;2.97;;
18596;SDS011;9428;50.950;6.912;2024-01-16T09:49:04;8.17;;;2.37;;
18596;SDS011;9428;50.950;6.912;2024-01-16T09:51:54;8.63;;;2.80;;
18596;SDS011;9428;50.950;6.912;2024-01-16T09:54:44;11.37;;;3.30;;
18596;SDS011;9428;50.950;6.912;2024-01-16T09:57:33;13.00;;;3.10;;
18596;SDS011;9428;50.950;6.912;2024-01-16T10:00:25;6.73;;;2.47;;
18596;SDS011;9428;50.950;6.912;2024-01-16T10:03:16;6.17;;;3.03;;
18596;SDS011;9428;50.950;6.912;2024-01-16T10:06:06;10.30;;;2.87;;
18596;SDS011;9428;50.950;6.912;2024-01-16T10:08:54;9.60;;;2.87;;
18596;SDS011;9428;50.950;6.912;2024-01-16T10:11:41;10.77;;;3.30;;
18596;SDS011;9428;50.950;6.912;2024-01-16T10:14:31;10.50;;;3.30;;
18596;SDS011;9428;50.950;6.912;2024-01-16T10:17:19;8.83;;;2.70;;
18596;SDS011;9428;50.950;6.912;2024-01-16T10:20:07;15.43;;;3.60;;
18596;SDS011;9428;50.950;6.912;2024-01-16T10:22:58;8.30;;;2.80;;
18596;SDS011;9428;50.950;6.912;2024-01-16T10:25:46;7.47;;;2.97;;
18596;SDS011;9428;50.950;6.912;2024-01-16T10:28:51;5.20;;;2.57;;
18596;SDS011;9428;50.950;6.912;2024-01-16T10:31:50;7.87;;;2.70;;
18596;SDS011;9428;50.950;6.912;2024-01-16T10:34:38;10.50;;;2.80;;
18596;SDS011;9428;50.950;6.912;2024-01-16T10:37:25;11.43;;;3.07;;
18596;SDS011;9428;50.950;6.912;2024-01-16T10:40:17;17.20;;;3.30;;
18596;SDS011;9428;50.950;6.912;2024-01-16T10:43:05;7.00;;;2.93;;
18596;SDS011;9428;50.950;6.912;2024-01-16T10:45:53;9.07;;;3.40;;
18596;SDS011;9428;50.950;6.912;2024-01-16T10:49:02;7.93;;;2.50;;
18596;SDS011;9428;50.950;6.912;2024-01-16T10:51:50;9.93;;;3.20;;
18596;SDS011;9428;50.950;6.912;2024-01-16T10:54:40;7.67;;;2.83;;
18596;SDS011;9428;50.950;6.912;2024-01-16T10:57:29;6.17;;;3.07;;
18596;SDS011;9428;50.950;6.912;2024-01-16T11:00:19;13.77;;;2.70;;
18596;SDS011;9428;50.950;6.912;2024-01-16T11:03:07;9.90;;;3.47;;
18596;SDS011;9428;50.950;6.912;2024-01-16T11:05:59;11.67;;;2.67;;
18596;SDS011;9428;50.950;6.912;2024-01-16T11:08:49;7.97;;;2.60;;
18596;SDS011;9428;50.950;6.912;2024-01-16T11:11:37;9.43;;;3.50;;
18596;SDS011;9428;50.950;6.912;2024-01-16T11:14:26;7.33;;;2.80;;
18596;SDS011;9428;50.950;6.912;2024-01-16T11:17:15;10.13;;;2.93;;
18596;SDS011;9428;50.950;6.912;2024-01-16T11:20:05;9.07;;;2.53;;
18596;SDS011;9428;50.950;6.912;2024-01-16T11:22:58;8.60;;;3.00;;
18596;SDS011;9428;50.950;6.912;2024-01-16T11:25:46;9.37;;;3.00;;
18596;SDS011;9428;50.950;6.912;2024-01-16T11:28:33;12.33;;;3.13;;
18596;SDS011;9428;50.950;6.912;2024-01-16T11:31:27;7.67;;;2.63;;
18596;SDS011;9428;50.950;6.912;2024-01-16T11:34:16;9.93;;;2.90;;
18596;SDS011;9428;50.950;6.912;2024-01-16T11:37:42;15.17;;;3.17;;
18596;SDS011;9428;50.950;6.912;2024-01-16T11:40:33;13.60;;;3.27;;
18596;SDS011;9428;50.950;6.912;2024-01-16T11:46:23;8.13;;;2.93;;
18596;SDS011;9428;50.950;6.912;2024-01-16T11:49:50;9.30;;;2.63;;
18596;SDS011;9428;50.950;6.912;2024-01-16T11:52:56;7.77;;;3.00;;
18596;SDS011;9428;50.950;6.912;2024-01-16T11:55:48;9.17;;;2.53;;
18596;SDS011;9428;50.950;6.912;2024-01-16T11:58:45;8.27;;;3.17;;
18596;SDS011;9428;50.950;6.912;2024-01-16T12:01:43;8.30;;;3.07;;
18596;SDS011;9428;50.950;6.912;2024-01-16T12:04:32;6.10;;;2.97;;
18596;SDS011;9428;50.950;6.912;2024-01-16T12:07:21;8.10;;;2.50;;
18596;SDS011;9428;50.950;6.912;2024-01-16T12:10:09;7.13;;;2.80;;
18596;SDS011;9428;50.950;6.912;2024-01-16T12:12:58;8.13;;;3.13;;
18596;SDS011;9428;50.950;6.912;2024-01-16T12:15:47;5.23;;;2.60;;
18596;SDS011;9428;50.950;6.912;2024-01-16T12:18:34;11.60;;;2.37;;
18596;SDS011;9428;50.950;6.912;2024-01-16T12:21:22;6.87;;;2.43;;
18596;SDS011;9428;50.950;6.912;2024-01-16T12:24:09;7.10;;;2.80;;
18596;SDS011;9428;50.950;6.912;2024-01-16T12:26:57;7.13;;;2.87;;
18596;SDS011;9428;50.950;6.912;2024-01-16T12:29:46;8.47;;;2.90;;
18596;SDS011;9428;50.950;6.912;2024-01-16T12:32:37;10.20;;;3.00;;
18596;SDS011;9428;50.950;6.912;2024-01-16T12:35:24;6.87;;;3.07;;
18596;SDS011;9428;50.950;6.912;2024-01-16T12:38:12;9.37;;;3.07;;
18596;SDS011;9428;50.950;6.912;2024-01-16T12:41:01;6.27;;;3.53;;
18596;SDS011;9428;50.950;6.912;2024-01-16T12:43:53;7.53;;;2.53;;
18596;SDS011;9428;50.950;6.912;2024-01-16T12:46:42;8.03;;;3.20;;
18596;SDS011;9428;50.950;6.912;2024-01-16T12:49:31;8.50;;;3.53;;
18596;SDS011;9428;50.950;6.912;2024-01-16T12:52:19;13.37;;;3.57;;
18596;SDS011;9428;50.950;6.912;2024-01-16T12:55:07;6.70;;;3.50;;
18596;SDS011;9428;50.950;6.912;2024-01-16T13:04:09;13.73;;;3.27;;
18596;SDS011;9428;50.950;6.912;2024-01-16T13:07:00;9.27;;;2.87;;
18596;SDS011;9428;50.950;6.912;2024-01-16T13:09:48;8.47;;;3.27;;
18596;SDS011;9428;50.950;6.912;2024-01-16T13:12:36;11.87;;;3.20;;
18596;SDS011;9428;50.950;6.912;2024-01-16T13:15:23;7.23;;;3.20;;
18596;SDS011;9428;50.950;6.912;2024-01-16T13:18:17;7.33;;;3.13;;
18596;SDS011;9428;50.950;6.912;2024-01-16T13:21:08;8.13;;;3.37;;
18596;SDS011;9428;50.950;6.912;2024-01-16T13:23:56;11.53;;;3.90;;
18596;SDS011;9428;50.950;6.912;2024-01-16T13:26:44;9.17;;;3.90;;
18596;SDS011;9428;50.950;6.912;2024-01-16T13:29:34;12.33;;;3.43;;
18596;SDS011;9428;50.950;6.912;2024-01-16T13:32:25;11.10;;;3.97;;
18596;SDS011;9428;50.950;6.912;2024-01-16T13:35:13;11.63;;;3.87;;
18596;SDS011;9428;50.950;6.912;2024-01-16T13:38:02;6.60;;;3.63;;
18596;SDS011;9428;50.950;6.912;2024-01-16T13:40:50;10.77;;;3.97;;
18596;SDS011;9428;50.950;6.912;2024-01-16T13:43:38;11.43;;;4.13;;
18596;SDS011;9428;50.950;6.912;2024-01-16T13:46:25;13.57;;;4.37;;
18596;SDS011;9428;50.950;6.912;2024-01-16T13:49:14;12.80;;;4.00;;
18596;SDS011;9428;50.950;6.912;2024-01-16T13:52:01;9.97;;;3.97;;
18596;SDS011;9428;50.950;6.912;2024-01-16T13:54:53;8.83;;;4.33;;
18596;SDS011;9428;50.950;6.912;2024-01-16T13:57:42;10.00;;;3.80;;
18596;SDS011;9428;50.950;6.912;2024-01-16T14:00:30;11.87;;;3.80;;
18596;SDS011;9428;50.950;6.912;2024-01-16T14:03:17;6.77;;;4.07;;
18596;SDS011;9428;50.950;6.912;2024-01-16T14:06:05;7.90;;;3.80;;
18596;SDS011;9428;50.950;6.912;2024-01-16T14:08:53;9.40;;;3.70;;
18596;SDS011;9428;50.950;6.912;2024-01-16T14:11:42;6.13;;;3.30;;
18596;SDS011;9428;50.950;6.912;2024-01-16T14:14:30;8.13;;;3.33;;
18596;SDS011;9428;50.950;6.912;2024-01-16T14:17:17;9.40;;;3.33;;
18596;SDS011;9428;50.950;6.912;2024-01-16T14:20:05;8.57;;;3.93;;
18596;SDS011;9428;50.950;6.912;2024-01-16T14:22:56;8.07;;;3.30;;
18596;SDS011;9428;50.950;6.912;2024-01-16T14:25:44;8.20;;;3.73;;
18596;SDS011;9428;50.950;6.912;2024-01-16T14:28:33;9.80;;;3.10;;
18596;SDS011;9428;50.950;6.912;2024-01-16T14:31:20;11.10;;;3.63;;
18596;SDS011;9428;50.950;6.912;2024-01-16T14:34:07;11.23;;;4.03;;
18596;SDS011;9428;50.950;6.912;2024-01-16T14:36:59;12.37;;;4.13;;
18596;SDS011;9428;50.950;6.912;2024-01-16T14:39:47;12.23;;;3.33;;
18596;SDS011;9428;50.950;6.912;2024-01-16T14:42:34;11.47;;;3.70;;
18596;SDS011;9428;50.950;6.912;2024-01-16T14:45:26;7.73;;;3.43;;
18596;SDS011;9428;50.950;6.912;2024-01-16T14:48:14;5.97;;;3.17;;
18596;SDS011;9428;50.950;6.912;2024-01-16T14:51:02;10.60;;;3.90;;
18596;SDS011;9428;50.950;6.912;2024-01-16T14:53:50;10.20;;;3.90;;
18596;SDS011;9428;50.950;6.912;2024-01-16T14:56:39;10.23;;;3.97;;
18596;SDS011;9428;50.950;6.912;2024-01-16T14:59:27;11.07;;;4.07;;
18596;SDS011;9428;50.950;6.912;2024-01-16T15:02:16;8.90;;;3.93;;
18596;SDS011;9428;50.950;6.912;2024-01-16T15:05:06;10.30;;;4.57;;
18596;SDS011;9428;50.950;6.912;2024-01-16T15:07:53;14.83;;;4.63;;
18596;SDS011;9428;50.950;6.912;2024-01-16T15:10:41;10.57;;;4.27;;
18596;SDS011;9428;50.950;6.912;2024-01-16T15:13:28;10.67;;;4.60;;
18596;SDS011;9428;50.950;6.912;2024-01-16T15:16:16;8.90;;;4.40;;
18596;SDS011;9428;50.950;6.912;2024-01-16T15:19:05;12.63;;;4.50;;
18596;SDS011;9428;50.950;6.912;2024-01-16T15:21:52;9.37;;;4.03;;
18596;SDS011;9428;50.950;6.912;2024-01-16T15:24:39;7.67;;;3.80;;
18596;SDS011;9428;50.950;6.912;2024-01-16T15:27:27;9.23;;;3.83;;
18596;SDS011;9428;50.950;6.912;2024-01-16T15:30:14;6.37;;;3.23;;
18596;SDS011;9428;50.950;6.912;2024-01-16T15:33:02;7.50;;;3.57;;
18596;SDS011;9428;50.950;6.912;2024-01-16T15:35:52;7.20;;;3.63;;
18596;SDS011;9428;50.950;6.912;2024-01-16T15:38:39;7.60;;;3.40;;
18596;SDS011;9428;50.950;6.912;2024-01-16T15:41:26;7.80;;;3.10;;
18596;SDS011;9428;50.950;6.912;2024-01-16T15:44:14;9.93;;;4.10;;
18596;SDS011;9428;50.950;6.912;2024-01-16T15:47:01;10.60;;;3.80;;
18596;SDS011;9428;50.950;6.912;2024-01-16T15:49:49;7.10;;;3.77;;
18596;SDS011;9428;50.950;6.912;2024-01-16T15:52:38;10.33;;;3.63;;
18596;SDS011;9428;50.950;6.912;2024-01-16T15:55:26;4.67;;;3.30;;
18596;SDS011;9428;50.950;6.912;2024-01-16T15:58:13;10.27;;;4.30;;
18596;SDS011;9428;50.950;6.912;2024-01-16T16:01:02;21.40;;;5.27;;
18596;SDS011;9428;50.950;6.912;2024-01-16T16:03:49;10.33;;;4.00;;
18596;SDS011;9428;50.950;6.912;2024-01-16T16:06:37;11.63;;;4.80;;
18596;SDS011;9428;50.950;6.912;2024-01-16T16:09:29;7.70;;;4.20;;
18596;SDS011;9428;50.950;6.912;2024-01-16T16:12:16;11.87;;;5.17;;
18596;SDS011;9428;50.950;6.912;2024-01-16T16:15:04;12.73;;;4.53;;
18596;SDS011;9428;50.950;6.912;2024-01-16T16:17:52;10.17;;;4.83;;
18596;SDS011;9428;50.950;6.912;2024-01-16T16:20:40;9.20;;;4.60;;
18596;SDS011;9428;50.950;6.912;2024-01-16T16:23:30;7.77;;;4.10;;
18596;SDS011;9428;50.950;6.912;2024-01-16T16:26:28;12.30;;;4.37;;
18596;SDS011;9428;50.950;6.912;2024-01-16T16:29:17;6.97;;;4.20;;
18596;SDS011;9428;50.950;6.912;2024-01-16T16:32:04;11.50;;;4.60;;
18596;SDS011;9428;50.950;6.912;2024-01-16T16:34:52;8.93;;;4.67;;
18596;SDS011;9428;50.950;6.912;2024-01-16T16:37:39;8.27;;;3.73;;
18596;SDS011;9428;50.950;6.912;2024-01-16T16:40:27;8.40;;;3.97;;
18596;SDS011;9428;50.950;6.912;2024-01-16T16:43:15;9.47;;;4.30;;
18596;SDS011;9428;50.950;6.912;2024-01-16T16:46:03;6.77;;;3.77;;
18596;SDS011;9428;50.950;6.912;2024-01-16T16:48:50;14.57;;;4.67;;
18596;SDS011;9428;50.950;6.912;2024-01-16T16:51:37;8.87;;;3.77;;
18596;SDS011;9428;50.950;6.912;2024-01-16T16:54:27;8.80;;;3.70;;
18596;SDS011;9428;50.950;6.912;2024-01-16T16:57:15;7.67;;;3.50;;
18596;SDS011;9428;50.950;6.912;2024-01-16T17:00:04;9.80;;;4.00;;
18596;SDS011;9428;50.950;6.912;2024-01-16T17:02:53;10.07;;;3.97;;
18596;SDS011;9428;50.950;6.912;2024-01-16T17:05:40;14.00;;;3.93;;
18596;SDS011;9428;50.950;6.912;2024-01-16T17:08:28;8.67;;;3.97;;
18596;SDS011;9428;50.950;6.912;2024-01-16T17:11:16;12.23;;;3.67;;